Time;durP1;ratioP1;P1;durP2;ratioP2;P2;SDS_P1;SDS_P2;PMS_P1;PMS_P2;Temp;Humidity;BMP_temperature;BMP_pressure;BME280_temperature;BME280_humidity;BME280_pressure;Samples;Min_cycle;Max_cycle;Signal;HPM_P1;HPM_P2
2023/07/14 00:00:22;;;;;;;;;;;;;;;;;;4913515;28;98355;-79
2023/07/14 00:02:50;;;;;;;;;;;;;;;;;;4911874;28;126918;-78
2023/07/14 00:05:17;;;;;;;;;;;;;;;;;;4902137;28;128161;-79
2023/07/14 00:07:44;;;;;;;;;;;;;;;;;;4923999;28;121675;-78
2023/07/14 00:10:10;;;;;;;;;;;;;;;;;;4897235;28;98605;-79
2023/07/14 00:12:38;;;;;;;;;;;;;;;;;;4898862;28;103549;-79
2023/07/14 00:15:04;;;;;;;;;;;;;;;;;;4911237;28;128051;-78
2023/07/14 00:17:31;;;;;;;;;;;;;;;;;;4910414;28;127573;-78
2023/07/14 00:19:59;;;;;;;;;;;;;;;;;;4911694;28;98622;-78
2023/07/14 00:22:25;;;;;;;;;;;;;;;;;;4914719;28;97926;-79
2023/07/14 00:24:52;;;;;;;;;;;;;;;;;;4912504;28;125152;-79
2023/07/14 00:27:18;;;;;;;;;;;;;;;;;;4910166;28;122665;-79
2023/07/14 00:29:45;;;;;;;;;;;;;;;;;;4914365;28;98953;-79
2023/07/14 00:32:13;;;;;;;;;;;;;;;;;;4912120;28;98645;-79
2023/07/14 00:34:40;;;;;;;;;;;;;;;;;;4915401;28;98841;-79
2023/07/14 00:37:06;;;;;;;;;;;;;;;;;;4914081;28;98545;-80
2023/07/14 00:39:33;;;;;;;;;;;;;;;;;;4914406;28;99136;-79
2023/07/14 00:41:59;;;;;;;;;;;;;;;;;;4916240;28;126617;-79
2023/07/14 00:44:25;;;;;;;;;;;;;;;;;;4882065;28;100635;-79
2023/07/14 00:46:52;;;;;;;;;;;;;;;;;;4915294;28;108314;-79
2023/07/14 00:49:20;;;;;;;;;;;;;;;;;;4898426;28;98522;-79
2023/07/14 00:51:46;;;;;;;;;;;;;;;;;;4899749;28;99007;-79
2023/07/14 00:54:13;;;;;;;;;;;;;;;;;;4910560;28;114581;-79
2023/07/14 00:56:39;;;;;;;;;;;;;;;;;;4909441;28;123140;-79
2023/07/14 00:59:06;;;;;;;;;;;;;;;;;;4891821;28;99373;-79
2023/07/14 01:01:32;;;;;;;;;;;;;;;;;;4884585;28;120162;-79
2023/07/14 01:03:59;;;;;;;;;;;;;;;;;;4909010;28;129763;-79
2023/07/14 01:06:26;;;;;;;;;;;;;;;;;;4891434;28;108095;-79
2023/07/14 01:08:53;;;;;;;;;;;;;;;;;;4912009;28;123072;-79
2023/07/14 01:11:20;;;;;;;;;;;;;;;;;;4910020;28;97743;-79
2023/07/14 01:13:46;;;;;;;;;;;;;;;;;;4908575;28;98788;-79
2023/07/14 01:16:14;;;;;;;;;;;;;;;;;;4910171;28;126937;-79
2023/07/14 01:18:41;;;;;;;;;;;;;;;;;;4897213;28;99234;-78
2023/07/14 01:21:07;;;;;;;;;;;;;;;;;;4904693;28;120719;-80
2023/07/14 01:23:33;;;;;;;;;;;;;;;;;;4901742;28;129601;-79
2023/07/14 01:26:00;;;;;;;;;;;;;;;;;;4887314;28;98462;-79
2023/07/14 01:28:27;;;;;;;;;;;;;;;;;;4886447;28;125972;-78
2023/07/14 01:30:53;;;;;;;;;;;;;;;;;;4914945;28;127926;-79
2023/07/14 01:33:20;;;;;;;;;;;;;;;;;;4902403;28;98404;-78
2023/07/14 01:35:46;;;;;;;;;;;;;;;;;;4879721;28;99485;-79
2023/07/14 01:38:13;;;;;;;;;;;;;;;;;;4873204;28;98531;-79
2023/07/14 01:40:42;;;;;;;;;;;;;;;;;;4887716;28;101106;-78
2023/07/14 01:43:08;;;;;;;;;;;;;;;;;;4880935;28;116307;-79
2023/07/14 01:45:35;;;;;;;;;;;;;;;;;;4882206;28;98605;-79
2023/07/14 01:48:02;;;;;;;;;;;;;;;;;;4876274;28;126760;-80
2023/07/14 01:50:31;;;;;;;;;;;;;;;;;;4857938;28;127312;-79
2023/07/14 01:53:00;;;;;;;;;;;;;;;;;;4857884;29;98562;-79
2023/07/14 01:55:31;;;;;;;;;;;;;;;;;;4874052;28;128796;-79
2023/07/14 01:58:01;;;;;;;;;;;;;;;;;;4879186;28;109136;-79
2023/07/14 02:00:28;;;;;;;;;;;;;;;;;;4881175;28;100285;-78
2023/07/14 02:02:54;;;;;;;;;;;;;;;;;;4873350;28;110944;-78
2023/07/14 02:05:21;;;;;;;;;;;;;;;;;;4892521;28;98260;-78
2023/07/14 02:07:47;;;;;;;;;;;;;;;;;;4873432;28;127131;-78
2023/07/14 02:10:15;;;;;;;;;;;;;;;;;;4877885;28;98956;-79
2023/07/14 02:12:46;;;;;;;;;;;;;;;;;;4877289;28;98590;-78
2023/07/14 02:15:12;;;;;;;;;;;;;;;;;;4880281;28;98444;-78
2023/07/14 02:17:39;;;;;;;;;;;;;;;;;;4883414;28;120225;-78
2023/07/14 02:20:06;;;;;;;;;;;;;;;;;;4883905;28;99787;-78
2023/07/14 02:22:33;;;;;;;;;;;;;;;;;;4865739;28;100043;-78
2023/07/14 02:24:59;;;;;;;;;;;;;;;;;;4887330;28;97499;-79
2023/07/14 02:27:26;;;;;;;;;;;;;;;;;;4873738;28;98736;-78
2023/07/14 02:29:52;;;;;;;;;;;;;;;;;;4888949;28;126672;-78
2023/07/14 02:32:19;;;;;;;;;;;;;;;;;;4848005;28;99262;-78
2023/07/14 02:34:45;;;;;;;;;;;;;;;;;;4881780;28;98472;-78
2023/07/14 02:37:12;;;;;;;;;;;;;;;;;;4904138;28;99064;-78
2023/07/14 02:39:38;;;;;;;;;;;;;;;;;;4891526;28;120393;-78
2023/07/14 02:42:04;;;;;;;;;;;;;;;;;;4902763;28;123848;-78
2023/07/14 02:44:31;;;;;;;;;;;;;;;;;;4919541;28;114485;-78
2023/07/14 02:46:57;;;;;;;;;;;;;;;;;;4919605;28;122710;-78
2023/07/14 02:49:26;;;;;;;;;;;;;;;;;;4903127;28;97814;-77
2023/07/14 02:51:54;;;;;;;;;;;;;;;;;;4902995;28;98512;-78
2023/07/14 02:54:20;;;;;;;;;;;;;;;;;;4888189;28;99702;-78
2023/07/14 02:56:47;;;;;;;;;;;;;;;;;;4884699;28;123053;-78
2023/07/14 02:59:13;;;;;;;;;;;;;;;;;;4886228;28;99931;-78
2023/07/14 03:01:40;;;;;;;;;;;;;;;;;;4910203;28;98522;-79
2023/07/14 03:04:06;;;;;;;;;;;;;;;;;;4886681;28;98664;-78
2023/07/14 03:06:33;;;;;;;;;;;;;;;;;;4898883;28;99945;-78
2023/07/14 03:08:59;;;;;;;;;;;;;;;;;;4924319;28;99096;-78
2023/07/14 03:11:26;;;;;;;;;;;;;;;;;;4914832;28;99388;-78
2023/07/14 03:13:52;;;;;;;;;;;;;;;;;;4901116;28;128593;-78
2023/07/14 03:16:18;;;;;;;;;;;;;;;;;;4917335;28;127870;-78
2023/07/14 03:18:45;;;;;;;;;;;;;;;;;;4905880;28;98502;-78
2023/07/14 03:21:12;;;;;;;;;;;;;;;;;;4909697;28;126062;-78
2023/07/14 03:23:38;;;;;;;;;;;;;;;;;;4891015;28;128964;-78
2023/07/14 03:26:05;;;;;;;;;;;;;;;;;;4898930;28;105274;-78
2023/07/14 03:28:32;;;;;;;;;;;;;;;;;;4893652;28;130485;-78
2023/07/14 03:30:58;;;;;;;;;;;;;;;;;;4896585;28;119446;-78
2023/07/14 03:33:24;;;;;;;;;;;;;;;;;;4879273;28;126949;-79
2023/07/14 03:35:51;;;;;;;;;;;;;;;;;;4909451;28;109772;-78
2023/07/14 03:38:17;;;;;;;;;;;;;;;;;;4912478;28;97778;-78
2023/07/14 03:40:44;;;;;;;;;;;;;;;;;;4906393;28;98580;-78
2023/07/14 03:43:10;;;;;;;;;;;;;;;;;;4918147;28;98730;-78
2023/07/14 03:45:39;;;;;;;;;;;;;;;;;;4894217;28;99379;-79
2023/07/14 03:48:06;;;;;;;;;;;;;;;;;;4908253;28;98791;-79
2023/07/14 03:50:32;;;;;;;;;;;;;;;;;;4910869;28;98642;-79
2023/07/14 03:52:59;;;;;;;;;;;;;;;;;;4902126;28;121567;-79
2023/07/14 03:55:25;;;;;;;;;;;;;;;;;;4897831;28;124587;-79
2023/07/14 03:57:55;;;;;;;;;;;;;;;;;;4905314;28;121078;-78
2023/07/14 04:00:30;;;;;;;;;;;;;;;;;;4892695;28;130829;-78
2023/07/14 04:02:57;;;;;;;;;;;;;;;;;;4874384;28;109400;-78
2023/07/14 04:05:23;;;;;;;;;;;;;;;;;;4889305;28;98449;-78
2023/07/14 04:07:50;;;;;;;;;;;;;;;;;;4906554;28;127195;-78
2023/07/14 04:10:18;;;;;;;;;;;;;;;;;;4900143;28;121130;-79
2023/07/14 04:12:44;;;;;;;;;;;;;;;;;;4914367;28;127559;-78
2023/07/14 04:15:10;;;;;;;;;;;;;;;;;;4913487;28;98637;-79
2023/07/14 04:17:37;;;;;;;;;;;;;;;;;;4906670;28;122508;-79
2023/07/14 04:20:05;;;;;;;;;;;;;;;;;;4911650;28;120413;-78
2023/07/14 04:22:31;;;;;;;;;;;;;;;;;;4892993;28;127725;-78
2023/07/14 04:24:58;;;;;;;;;;;;;;;;;;4898398;28;98453;-79
2023/07/14 04:27:24;;;;;;;;;;;;;;;;;;4920621;28;118866;-78
2023/07/14 04:29:51;;;;;;;;;;;;;;;;;;4896895;28;122062;-78
2023/07/14 04:32:17;;;;;;;;;;;;;;;;;;4915308;28;107257;-78
2023/07/14 04:34:44;;;;;;;;;;;;;;;;;;4912079;28;128209;-78
2023/07/14 04:37:10;;;;;;;;;;;;;;;;;;4915283;28;115797;-79
2023/07/14 04:39:36;;;;;;;;;;;;;;;;;;4897071;28;126609;-79
2023/07/14 04:42:03;;;;;;;;;;;;;;;;;;4914073;28;120164;-79
2023/07/14 04:44:33;;;;;;;;;;;;;;;;;;4896000;28;98445;-78
2023/07/14 04:46:59;;;;;;;;;;;;;;;;;;4899430;28;127960;-79
2023/07/14 04:49:26;;;;;;;;;;;;;;;;;;4918011;28;122632;-79
2023/07/14 04:51:52;;;;;;;;;;;;;;;;;;4914750;28;122281;-79
2023/07/14 04:54:18;;;;;;;;;;;;;;;;;;4914134;28;129900;-79
2023/07/14 04:56:45;;;;;;;;;;;;;;;;;;4918658;28;98511;-79
2023/07/14 04:59:11;;;;;;;;;;;;;;;;;;4898604;28;128138;-79
2023/07/14 05:01:38;;;;;;;;;;;;;;;;;;4899161;28;98205;-79
2023/07/14 05:04:05;;;;;;;;;;;;;;;;;;4895027;28;111163;-80
2023/07/14 05:06:31;;;;;;;;;;;;;;;;;;4907650;28;107382;-79
2023/07/14 05:08:58;;;;;;;;;;;;;;;;;;4917103;28;101322;-79
2023/07/14 05:11:25;;;;;;;;;;;;;;;;;;4918870;28;122205;-79
2023/07/14 05:13:51;;;;;;;;;;;;;;;;;;4917098;28;121787;-79
2023/07/14 05:16:18;;;;;;;;;;;;;;;;;;4908100;28;97844;-79
2023/07/14 05:18:46;;;;;;;;;;;;;;;;;;4910876;28;105061;-79
2023/07/14 05:21:12;;;;;;;;;;;;;;;;;;4916771;28;128452;-79
2023/07/14 05:23:39;;;;;;;;;;;;;;;;;;4915518;28;104487;-79
2023/07/14 05:26:05;;;;;;;;;;;;;;;;;;4908844;28;126519;-79
2023/07/14 05:28:32;;;;;;;;;;;;;;;;;;4917043;28;98469;-79
2023/07/14 05:31:00;;;;;;;;;;;;;;;;;;4901396;28;120329;-78
2023/07/14 05:33:29;;;;;;;;;;;;;;;;;;4918987;28;120841;-78
2023/07/14 05:35:55;;;;;;;;;;;;;;;;;;4909915;28;115862;-79
2023/07/14 05:38:22;;;;;;;;;;;;;;;;;;4908169;28;122269;-78
2023/07/14 05:40:52;;;;;;;;;;;;;;;;;;4890304;28;98326;-79
2023/07/14 05:43:23;;;;;;;;;;;;;;;;;;4914628;28;98569;-79
2023/07/14 05:45:50;;;;;;;;;;;;;;;;;;4907871;28;127924;-78
2023/07/14 05:48:17;;;;;;;;;;;;;;;;;;4887545;28;128853;-78
2023/07/14 05:50:44;;;;;;;;;;;;;;;;;;4915678;28;98529;-78
2023/07/14 05:53:11;;;;;;;;;;;;;;;;;;4899559;28;126106;-78
2023/07/14 05:55:38;;;;;;;;;;;;;;;;;;4903980;28;98505;-78
2023/07/14 05:58:06;;;;;;;;;;;;;;;;;;4900755;28;120195;-79
2023/07/14 06:00:38;;;;;;;;;;;;;;;;;;4910155;28;127432;-81
2023/07/14 06:03:06;;;;;;;;;;;;;;;;;;4897413;28;121334;-79
2023/07/14 06:05:32;;;;;;;;;;;;;;;;;;4900809;28;97917;-80
2023/07/14 06:07:59;;;;;;;;;;;;;;;;;;4897247;28;122805;-79
2023/07/14 06:10:25;;;;;;;;;;;;;;;;;;4885280;28;119529;-78
2023/07/14 06:12:52;;;;;;;;;;;;;;;;;;4907209;28;99832;-78
2023/07/14 06:15:18;;;;;;;;;;;;;;;;;;4900966;28;129945;-78
2023/07/14 06:17:45;;;;;;;;;;;;;;;;;;4897992;28;126454;-78
2023/07/14 06:20:11;;;;;;;;;;;;;;;;;;4894952;28;100206;-79
2023/07/14 06:22:38;;;;;;;;;;;;;;;;;;4907525;28;121273;-78
2023/07/14 06:25:04;;;;;;;;;;;;;;;;;;4914425;28;125862;-78
2023/07/14 06:27:33;;;;;;;;;;;;;;;;;;4913443;28;98382;-78
2023/07/14 06:29:59;;;;;;;;;;;;;;;;;;4916203;28;121145;-78
2023/07/14 06:32:26;;;;;;;;;;;;;;;;;;4918356;28;98569;-79
2023/07/14 06:34:56;;;;;;;;;;;;;;;;;;4912921;28;126549;-79
2023/07/14 06:37:24;;;;;;;;;;;;;;;;;;4901943;28;99293;-78
2023/07/14 06:39:50;;;;;;;;;;;;;;;;;;4918163;28;105295;-78
2023/07/14 06:42:16;;;;;;;;;;;;;;;;;;4910211;28;120945;-78
2023/07/14 06:44:43;;;;;;;;;;;;;;;;;;4913868;28;111635;-78
2023/07/14 06:47:09;;;;;;;;;;;;;;;;;;4916802;28;111824;-78
2023/07/14 06:49:36;;;;;;;;;;;;;;;;;;4898175;28;98415;-79
2023/07/14 06:52:03;;;;;;;;;;;;;;;;;;4900293;28;128443;-79
2023/07/14 06:54:30;;;;;;;;;;;;;;;;;;4915483;28;121131;-80
2023/07/14 06:56:57;;;;;;;;;;;;;;;;;;4914912;28;98577;-79
2023/07/14 06:59:24;;;;;;;;;;;;;;;;;;4911366;28;127883;-79
2023/07/14 07:01:51;;;;;;;;;;;;;;;;;;4873254;28;121145;-79
2023/07/14 07:04:17;;;;;;;;;;;;;;;;;;4901717;28;124374;-79
2023/07/14 07:06:44;;;;;;;;;;;;;;;;;;4911595;28;102555;-79
2023/07/14 07:09:13;;;;;;;;;;;;;;;;;;4884993;28;98496;-79
2023/07/14 07:11:40;;;;;;;;;;;;;;;;;;4914074;28;99990;-78
2023/07/14 07:14:06;;;;;;;;;;;;;;;;;;4912109;28;106709;-78
2023/07/14 07:16:33;;;;;;;;;;;;;;;;;;4912946;28;122446;-78
2023/07/14 07:18:59;;;;;;;;;;;;;;;;;;4914060;28;117089;-79
2023/07/14 07:21:26;;;;;;;;;;;;;;;;;;4908220;28;127094;-79
2023/07/14 07:23:52;;;;;;;;;;;;;;;;;;4912661;28;121186;-78
2023/07/14 07:26:19;;;;;;;;;;;;;;;;;;4915929;28;100711;-79
2023/07/14 07:28:46;;;;;;;;;;;;;;;;;;4900297;28;121148;-78
2023/07/14 07:31:14;;;;;;;;;;;;;;;;;;4914924;28;122092;-78
2023/07/14 07:33:41;;;;;;;;;;;;;;;;;;4912191;28;119693;-79
2023/07/14 07:36:17;;;;;;;;;;;;;;;;;;4886980;28;98513;-79
2023/07/14 07:38:43;;;;;;;;;;;;;;;;;;4899229;28;108683;-77
2023/07/14 07:41:10;;;;;;;;;;;;;;;;;;4899501;28;127441;-78
2023/07/14 07:43:37;;;;;;;;;;;;;;;;;;4895649;28;97752;-77
2023/07/14 07:46:04;;;;;;;;;;;;;;;;;;4894130;28;125989;-77
2023/07/14 07:48:30;;;;;;;;;;;;;;;;;;4892991;28;105060;-77
2023/07/14 07:50:57;;;;;;;;;;;;;;;;;;4891702;28;126707;-77
2023/07/14 07:53:23;;;;;;;;;;;;;;;;;;4888181;28;103311;-78
2023/07/14 07:55:49;;;;;;;;;;;;;;;;;;4903252;28;121089;-78
2023/07/14 07:58:16;;;;;;;;;;;;;;;;;;4897657;28;123471;-77
2023/07/14 08:00:43;;;;;;;;;;;;;;;;;;4909050;28;127548;-79
2023/07/14 08:03:10;;;;;;;;;;;;;;;;;;4899941;28;122532;-79
2023/07/14 08:05:36;;;;;;;;;;;;;;;;;;4909312;28;98512;-78
2023/07/14 08:08:03;;;;;;;;;;;;;;;;;;4891632;28;122712;-78
2023/07/14 08:10:29;;;;;;;;;;;;;;;;;;4905241;28;126358;-78
2023/07/14 08:12:55;;;;;;;;;;;;;;;;;;4898935;28;113325;-79
2023/07/14 08:15:22;;;;;;;;;;;;;;;;;;4905962;28;108686;-77
2023/07/14 08:17:49;;;;;;;;;;;;;;;;;;4909943;28;127420;-78
2023/07/14 08:20:17;;;;;;;;;;;;;;;;;;4909343;28;99128;-78
2023/07/14 08:22:43;;;;;;;;;;;;;;;;;;4889564;28;122484;-78
2023/07/14 08:25:10;;;;;;;;;;;;;;;;;;4901131;28;126745;-78
2023/07/14 08:27:37;;;;;;;;;;;;;;;;;;4911626;28;101016;-79
2023/07/14 08:30:06;;;;;;;;;;;;;;;;;;4904058;28;126748;-79
2023/07/14 08:32:32;;;;;;;;;;;;;;;;;;4909169;28;112238;-79
2023/07/14 08:34:58;;;;;;;;;;;;;;;;;;4897937;28;123238;-78
2023/07/14 08:37:25;;;;;;;;;;;;;;;;;;4907360;28;114375;-78
2023/07/14 08:39:51;;;;;;;;;;;;;;;;;;4915969;28;127802;-78
2023/07/14 08:42:17;;;;;;;;;;;;;;;;;;4916929;28;121342;-78
2023/07/14 08:44:44;;;;;;;;;;;;;;;;;;4891248;28;117756;-78
2023/07/14 08:47:11;;;;;;;;;;;;;;;;;;4919518;28;128939;-79
2023/07/14 08:49:37;;;;;;;;;;;;;;;;;;4922264;28;99640;-78
2023/07/14 08:52:04;;;;;;;;;;;;;;;;;;4916258;28;127446;-79
2023/07/14 08:54:32;;;;;;;;;;;;;;;;;;4913951;28;98664;-79
2023/07/14 08:56:58;;;;;;;;;;;;;;;;;;4898215;28;129275;-78
2023/07/14 08:59:25;;;;;;;;;;;;;;;;;;4886566;28;107446;-78
2023/07/14 09:01:52;;;;;;;;;;;;;;;;;;4917521;28;98538;-78
2023/07/14 09:04:18;;;;;;;;;;;;;;;;;;4877183;28;127667;-78
2023/07/14 09:06:46;;;;;;;;;;;;;;;;;;4910573;28;128761;-78
2023/07/14 09:09:12;;;;;;;;;;;;;;;;;;4897333;28;121209;-79
2023/07/14 09:11:39;;;;;;;;;;;;;;;;;;4916187;28;98447;-78
2023/07/14 09:14:05;;;;;;;;;;;;;;;;;;4912992;28;111879;-78
2023/07/14 09:16:32;;;;;;;;;;;;;;;;;;4919465;28;124405;-78
2023/07/14 09:18:58;;;;;;;;;;;;;;;;;;4910010;28;121489;-77
2023/07/14 09:21:24;;;;;;;;;;;;;;;;;;4908856;28;119326;-78
2023/07/14 09:23:51;;;;;;;;;;;;;;;;;;4914117;28;98168;-78
2023/07/14 09:26:17;;;;;;;;;;;;;;;;;;4916745;28;98505;-78
2023/07/14 09:28:44;;;;;;;;;;;;;;;;;;4914724;28;121090;-79
2023/07/14 09:31:10;;;;;;;;;;;;;;;;;;4897930;28;127471;-78
2023/07/14 09:33:37;;;;;;;;;;;;;;;;;;4913904;28;121415;-79
2023/07/14 09:36:03;;;;;;;;;;;;;;;;;;4909970;28;103348;-79
2023/07/14 09:38:29;;;;;;;;;;;;;;;;;;4915714;28;128585;-78
2023/07/14 09:40:56;;;;;;;;;;;;;;;;;;4914480;28;122219;-78
2023/07/14 09:43:22;;;;;;;;;;;;;;;;;;4915441;28;119057;-78
2023/07/14 09:45:49;;;;;;;;;;;;;;;;;;4910045;28;123855;-78
2023/07/14 09:48:15;;;;;;;;;;;;;;;;;;4914963;28;122283;-79
2023/07/14 09:50:41;;;;;;;;;;;;;;;;;;4896146;28;125978;-78
2023/07/14 09:53:08;;;;;;;;;;;;;;;;;;4895650;28;99263;-78
2023/07/14 09:55:34;;;;;;;;;;;;;;;;;;4893623;28;125828;-78
2023/07/14 09:58:02;;;;;;;;;;;;;;;;;;4906315;28;127509;-78
2023/07/14 10:00:36;;;;;;;;;;;;;;;;;;4912199;28;99974;-78
2023/07/14 10:03:03;;;;;;;;;;;;;;;;;;4915545;28;111353;-78
2023/07/14 10:05:30;;;;;;;;;;;;;;;;;;4879119;28;115458;-78
2023/07/14 10:07:56;;;;;;;;;;;;;;;;;;4918545;28;117828;-78
2023/07/14 10:10:26;;;;;;;;;;;;;;;;;;4916288;28;97813;-78
2023/07/14 10:12:52;;;;;;;;;;;;;;;;;;4918804;28;122033;-79
2023/07/14 10:15:19;;;;;;;;;;;;;;;;;;4917512;28;104613;-78
2023/07/14 10:17:45;;;;;;;;;;;;;;;;;;4911146;28;129224;-79
2023/07/14 10:20:16;;;;;;;;;;;;;;;;;;4913994;28;123204;-79
2023/07/14 10:22:43;;;;;;;;;;;;;;;;;;4912130;28;123562;-79
2023/07/14 10:25:09;;;;;;;;;;;;;;;;;;4911060;28;98546;-79
2023/07/14 10:27:38;;;;;;;;;;;;;;;;;;4911607;28;98583;-79
2023/07/14 10:30:05;;;;;;;;;;;;;;;;;;4915836;28;100143;-79
2023/07/14 10:32:31;;;;;;;;;;;;;;;;;;4909378;28;127368;-79
2023/07/14 10:34:58;;;;;;;;;;;;;;;;;;4916471;28;119634;-80
2023/07/14 10:37:27;;;;;;;;;;;;;;;;;;4915835;28;108109;-80
2023/07/14 10:39:53;;;;;;;;;;;;;;;;;;4915395;28;109217;-80
2023/07/14 10:42:20;;;;;;;;;;;;;;;;;;4915023;28;124554;-80
2023/07/14 10:44:46;;;;;;;;;;;;;;;;;;4914329;28;127780;-80
2023/07/14 10:47:12;;;;;;;;;;;;;;;;;;4916212;28;98455;-79
2023/07/14 10:49:40;;;;;;;;;;;;;;;;;;4913817;28;122183;-79
2023/07/14 10:52:06;;;;;;;;;;;;;;;;;;4913356;28;122473;-79
2023/07/14 10:54:33;;;;;;;;;;;;;;;;;;4917610;28;98598;-80
2023/07/14 10:56:59;;;;;;;;;;;;;;;;;;4914730;28;128209;-80
2023/07/14 10:59:26;;;;;;;;;;;;;;;;;;4902183;28;121093;-79
2023/07/14 11:01:52;;;;;;;;;;;;;;;;;;4904797;28;98543;-80
2023/07/14 11:04:19;;;;;;;;;;;;;;;;;;4913592;28;115803;-79
2023/07/14 11:06:45;;;;;;;;;;;;;;;;;;4889779;28;104737;-80
2023/07/14 11:09:12;;;;;;;;;;;;;;;;;;4894070;28;126529;-80
2023/07/14 11:11:39;;;;;;;;;;;;;;;;;;4907663;28;116753;-79
2023/07/14 11:14:24;;;;;;;;;;;;;;;;;;5052906;27;92098;-80
2023/07/14 11:16:53;;;;;;;;;;;;;;;;;;5036075;27;91987;-80
2023/07/14 11:19:20;;;;;;;;;;;;;;;;;;5038175;27;91884;-80
2023/07/14 11:21:48;;;;;;;;;;;;;;;;;;5034646;27;120526;-79
2023/07/14 11:24:15;;;;;;;;;;;;;;;;;;5029491;27;104303;-80
2023/07/14 11:26:41;;;;;;;;;;;;;;;;;;5034264;27;117631;-80
2023/07/14 11:29:08;;;;;;;;;;;;;;;;;;5037390;27;91845;-79
2023/07/14 11:31:34;;;;;;;;;;;;;;;;;;5037117;27;122442;-80
2023/07/14 11:34:01;;;;;;;;;;;;;;;;;;5037546;27;92549;-79
2023/07/14 11:36:30;;;;;;;;;;;;;;;;;;5034412;27;122753;-80
2023/07/14 11:38:57;;;;;;;;;;;;;;;;;;5035247;27;110638;-80
2023/07/14 11:41:23;;;;;;;;;;;;;;;;;;5034532;27;96150;-80
2023/07/14 11:43:50;;;;;;;;;;;;;;;;;;5033825;27;122421;-80
2023/07/14 11:46:18;;;;;;;;;;;;;;;;;;5034890;27;92007;-81
2023/07/14 11:48:45;;;;;;;;;;;;;;;;;;5034920;27;95424;-80
2023/07/14 11:51:11;;;;;;;;;;;;;;;;;;5033057;27;122026;-80
2023/07/14 11:53:38;;;;;;;;;;;;;;;;;;5033982;27;92321;-80
2023/07/14 11:56:04;;;;;;;;;;;;;;;;;;5036200;28;120686;-79
2023/07/14 11:58:31;;;;;;;;;;;;;;;;;;5020352;27;118390;-80
2023/07/14 12:00:57;;;;;;;;;;;;;;;;;;5033920;28;115699;-80
2023/07/14 12:03:24;;;;;;;;;;;;;;;;;;5034829;27;92682;-80
2023/07/14 12:05:59;;;;;;;;;;;;;;;;;;5033661;27;91713;-80
2023/07/14 12:08:26;;;;;;;;;;;;;;;;;;5033906;27;121765;-80
2023/07/14 12:10:52;;;;;;;;;;;;;;;;;;5034122;27;122317;-80
2023/07/14 12:13:20;;;;;;;;;;;;;;;;;;5034978;27;92202;-80
2023/07/14 12:15:47;;;;;;;;;;;;;;;;;;5033868;27;120527;-80
2023/07/14 12:18:17;;;;;;;;;;;;;;;;;;5037595;27;122157;-80
2023/07/14 12:20:44;;;;;;;;;;;;;;;;;;5033224;27;110100;-80
2023/07/14 12:23:11;;;;;;;;;;;;;;;;;;5034306;27;94383;-80
2023/07/14 12:25:38;;;;;;;;;;;;;;;;;;5023013;27;92008;-80
2023/07/14 12:28:04;;;;;;;;;;;;;;;;;;5020686;28;121118;-80
2023/07/14 12:30:33;;;;;;;;;;;;;;;;;;5022080;28;91915;-78
2023/07/14 12:32:59;;;;;;;;;;;;;;;;;;5022306;28;112440;-79
2023/07/14 12:35:26;;;;;;;;;;;;;;;;;;5017853;28;123097;-78
2023/07/14 12:37:53;;;;;;;;;;;;;;;;;;5017067;28;121001;-78
2023/07/14 12:40:19;;;;;;;;;;;;;;;;;;5021282;28;101833;-78
2023/07/14 12:42:46;;;;;;;;;;;;;;;;;;5017841;28;92520;-80
2023/07/14 12:45:12;;;;;;;;;;;;;;;;;;5019194;28;115423;-80
2023/07/14 12:47:39;;;;;;;;;;;;;;;;;;5018779;28;112519;-80
2023/07/14 12:50:05;;;;;;;;;;;;;;;;;;5020251;28;99217;-80
2023/07/14 12:52:32;;;;;;;;;;;;;;;;;;5018506;28;114711;-79
2023/07/14 12:54:58;;;;;;;;;;;;;;;;;;5020866;28;94764;-80
2023/07/14 12:57:25;;;;;;;;;;;;;;;;;;5019277;28;121062;-79
2023/07/14 12:59:51;;;;;;;;;;;;;;;;;;5019368;28;115091;-80
2023/07/14 13:02:18;;;;;;;;;;;;;;;;;;5022800;28;92112;-79
2023/07/14 13:04:47;;;;;;;;;;;;;;;;;;5018490;28;116160;-79
2023/07/14 13:07:14;;;;;;;;;;;;;;;;;;5019633;28;121536;-80
2023/07/14 13:09:40;;;;;;;;;;;;;;;;;;5018792;28;101173;-80
2023/07/14 13:12:07;;;;;;;;;;;;;;;;;;5017877;28;114952;-80
2023/07/14 13:14:33;;;;;;;;;;;;;;;;;;5019774;28;92104;-79
2023/07/14 13:17:02;;;;;;;;;;;;;;;;;;5023178;28;121033;-79
2023/07/14 13:19:28;;;;;;;;;;;;;;;;;;5023833;28;116741;-80
2023/07/14 13:21:55;;;;;;;;;;;;;;;;;;5025363;28;91647;-79
2023/07/14 13:24:21;;;;;;;;;;;;;;;;;;5022301;28;91995;-79
2023/07/14 13:26:47;;;;;;;;;;;;;;;;;;5017771;28;120538;-79
2023/07/14 13:29:17;;;;;;;;;;;;;;;;;;5017311;28;108242;-79
2023/07/14 13:31:44;;;;;;;;;;;;;;;;;;5018136;28;92031;-80
2023/07/14 13:34:10;;;;;;;;;;;;;;;;;;5020990;28;119678;-80
2023/07/14 13:36:36;;;;;;;;;;;;;;;;;;5018452;28;115487;-80
2023/07/14 13:39:03;;;;;;;;;;;;;;;;;;5017772;28;92135;-79
2023/07/14 13:41:29;;;;;;;;;;;;;;;;;;5020823;28;104206;-80
2023/07/14 13:43:56;;;;;;;;;;;;;;;;;;5020472;28;123983;-80
2023/07/14 13:46:22;;;;;;;;;;;;;;;;;;5021240;28;92646;-80
2023/07/14 13:48:49;;;;;;;;;;;;;;;;;;5018654;28;124747;-80
2023/07/14 13:51:15;;;;;;;;;;;;;;;;;;5020100;28;98035;-80
2023/07/14 13:53:41;;;;;;;;;;;;;;;;;;5020626;28;117596;-81
2023/07/14 13:56:10;;;;;;;;;;;;;;;;;;5019001;28;122658;-80
2023/07/14 13:58:37;;;;;;;;;;;;;;;;;;5020242;28;95523;-80
2023/07/14 14:01:04;;;;;;;;;;;;;;;;;;5018198;28;120527;-80
2023/07/14 14:03:31;;;;;;;;;;;;;;;;;;5020215;28;118094;-81
2023/07/14 14:05:57;;;;;;;;;;;;;;;;;;5024566;28;92030;-80
2023/07/14 14:08:24;;;;;;;;;;;;;;;;;;5019840;28;123558;-80
2023/07/14 14:10:51;;;;;;;;;;;;;;;;;;5017631;28;114816;-80
2023/07/14 14:13:18;;;;;;;;;;;;;;;;;;5018249;28;106177;-80
2023/07/14 14:15:44;;;;;;;;;;;;;;;;;;5017358;28;122444;-80
2023/07/14 14:18:13;;;;;;;;;;;;;;;;;;5016502;28;114893;-80
2023/07/14 14:20:40;;;;;;;;;;;;;;;;;;5021247;28;101226;-80
2023/07/14 14:23:06;;;;;;;;;;;;;;;;;;5016522;28;117538;-80
2023/07/14 14:25:33;;;;;;;;;;;;;;;;;;5025174;28;93929;-80
2023/07/14 14:28:00;;;;;;;;;;;;;;;;;;5017349;28;120781;-80
2023/07/14 14:30:26;;;;;;;;;;;;;;;;;;5022655;28;92393;-80
2023/07/14 14:32:53;;;;;;;;;;;;;;;;;;5018094;28;121889;-80
2023/07/14 14:35:19;;;;;;;;;;;;;;;;;;5019094;28;122226;-80
2023/07/14 14:37:45;;;;;;;;;;;;;;;;;;5013882;28;115272;-80
2023/07/14 14:40:12;;;;;;;;;;;;;;;;;;5015529;28;99281;-80
2023/07/14 14:42:38;;;;;;;;;;;;;;;;;;5016407;28;122338;-80
2023/07/14 14:45:05;;;;;;;;;;;;;;;;;;5016723;28;99337;-79
2023/07/14 14:47:31;;;;;;;;;;;;;;;;;;5015736;28;97917;-80
2023/07/14 14:49:58;;;;;;;;;;;;;;;;;;5018952;28;99078;-80
2023/07/14 14:52:24;;;;;;;;;;;;;;;;;;5016643;28;120414;-80
2023/07/14 14:54:51;;;;;;;;;;;;;;;;;;5016730;28;109038;-80
2023/07/14 14:57:17;;;;;;;;;;;;;;;;;;5015500;28;109389;-80
2023/07/14 14:59:43;;;;;;;;;;;;;;;;;;5016117;28;120610;-80
2023/07/14 15:02:12;;;;;;;;;;;;;;;;;;5016804;28;116294;-80
2023/07/14 15:04:38;;;;;;;;;;;;;;;;;;5019216;28;92047;-80
2023/07/14 15:07:05;;;;;;;;;;;;;;;;;;5016503;28;120622;-80
2023/07/14 15:09:31;;;;;;;;;;;;;;;;;;5008892;28;119772;-80
2023/07/14 15:11:58;;;;;;;;;;;;;;;;;;5020753;28;115892;-80
2023/07/14 15:14:24;;;;;;;;;;;;;;;;;;5015150;28;113898;-80
2023/07/14 15:16:51;;;;;;;;;;;;;;;;;;5002649;28;96936;-79
2023/07/14 15:19:18;;;;;;;;;;;;;;;;;;5013704;28;107939;-80
2023/07/14 15:21:44;;;;;;;;;;;;;;;;;;5016214;28;122312;-80
2023/07/14 15:24:11;;;;;;;;;;;;;;;;;;5016008;28;115369;-79
2023/07/14 15:26:41;;;;;;;;;;;;;;;;;;5013258;28;114057;-80
2023/07/14 15:29:07;;;;;;;;;;;;;;;;;;4997269;28;125752;-80
2023/07/14 15:31:37;;;;;;;;;;;;;;;;;;5018568;28;117067;-79
2023/07/14 15:34:04;;;;;;;;;;;;;;;;;;5015023;28;122415;-80
2023/07/14 15:36:30;;;;;;;;;;;;;;;;;;5016907;28;115027;-80
2023/07/14 15:38:57;;;;;;;;;;;;;;;;;;5027774;28;97523;-80
2023/07/14 15:41:24;;;;;;;;;;;;;;;;;;5018708;27;92199;-79
2023/07/14 15:43:50;;;;;;;;;;;;;;;;;;5026274;28;92265;-80
2023/07/14 15:46:18;;;;;;;;;;;;;;;;;;5021269;27;120555;-80
2023/07/14 15:48:44;;;;;;;;;;;;;;;;;;5015783;28;117191;-81
2023/07/14 15:51:11;;;;;;;;;;;;;;;;;;5015130;28;112219;-79
2023/07/14 15:53:37;;;;;;;;;;;;;;;;;;5019876;28;93195;-79
2023/07/14 15:56:13;;;;;;;;;;;;;;;;;;5022111;27;92054;-80
2023/07/14 15:58:40;;;;;;;;;;;;;;;;;;5017713;28;121522;-79
2023/07/14 16:01:09;;;;;;;;;;;;;;;;;;5019474;28;119770;-79
2023/07/14 16:03:54;;;;;;;;;;;;;;;;;;5021544;28;93196;-79
2023/07/14 16:06:29;;;;;;;;;;;;;;;;;;5020688;28;91909;-80
2023/07/14 16:08:56;;;;;;;;;;;;;;;;;;5002676;28;123563;-79
2023/07/14 16:11:23;;;;;;;;;;;;;;;;;;5010153;28;116414;-79
2023/07/14 16:13:50;;;;;;;;;;;;;;;;;;5023139;28;120667;-79
2023/07/14 16:16:17;;;;;;;;;;;;;;;;;;5030664;28;121072;-79
2023/07/14 16:18:43;;;;;;;;;;;;;;;;;;5015647;28;124931;-80
2023/07/14 16:21:09;;;;;;;;;;;;;;;;;;5025760;27;121055;-79
2023/07/14 16:23:38;;;;;;;;;;;;;;;;;;5021821;28;120204;-79
2023/07/14 16:26:04;;;;;;;;;;;;;;;;;;5023660;28;92317;-79
2023/07/14 16:28:31;;;;;;;;;;;;;;;;;;5031637;28;120919;-80
2023/07/14 16:30:57;;;;;;;;;;;;;;;;;;5022394;28;106814;-80